Terminal Aerodrome Forecast
Issued by NWS

Home | Current Version | Previous Version | Text Only | Print | Product List | Glossary On
Versions: 1 2 3 4 5 6 7 8 9 10 11 12 13 14 15 16 17
000
FTPA31 PHFO 291120
TAFHNY
TAF
PHNY 291120Z 2912/3012 06006KT P6SM SCT025
     FM292000 VRB06KT P6SM BKN025
      TEMPO 2920/2924 SCT025 BKN035
     FM300300 04009KT P6SM SCT025 BKN040=

USA.gov is the U.S. government's official web portal to all federal, state and local government web resources and services.